Time;durP1;ratioP1;P1;durP2;ratioP2;P2;SDS_P1;SDS_P2;PMS_P1;PMS_P2;Temp;Humidity;BMP_temperature;BMP_pressure;BME280_temperature;BME280_humidity;BME280_pressure;Samples;Min_cycle;Max_cycle;Signal;HPM_P1;HPM_P2
2022/02/13 00:00:29;;;;;;;1.20;1.00;;;-0.70;98.00;;;;;;5070846;28;21001;-68
2022/02/13 00:02:56;;;;;;;2.13;1.60;;;-0.90;98.00;;;;;;5070983;28;20512;-68
2022/02/13 00:05:23;;;;;;;1.73;1.63;;;-0.90;98.00;;;;;;5070883;28;20511;-68
2022/02/13 00:07:51;;;;;;;1.40;1.30;;;-0.90;98.00;;;;;;5053125;28;20740;-68
2022/02/13 00:10:18;;;;;;;1.77;1.30;;;-0.70;98.00;;;;;;5070728;28;20542;-69
2022/02/13 00:12:45;;;;;;;2.50;1.73;;;-0.70;98.00;;;;;;5071146;28;20711;-68
2022/02/13 00:15:12;;;;;;;2.30;1.93;;;-0.60;98.00;;;;;;5053189;28;20493;-68
2022/02/13 00:17:40;;;;;;;1.70;1.60;;;-0.50;98.00;;;;;;5070913;28;20457;-68
2022/02/13 00:20:08;;;;;;;1.17;1.10;;;-0.50;98.00;;;;;;5071889;28;20587;-68
2022/02/13 00:22:35;;;;;;;5.57;2.03;;;-0.60;98.00;;;;;;5071347;28;20483;-68
2022/02/13 00:25:04;;;;;;;1.20;1.10;;;-0.50;98.00;;;;;;5072087;28;20542;-68
2022/02/13 00:27:33;;;;;;;1.27;1.23;;;-0.70;98.00;;;;;;5071111;28;20211;-68
2022/02/13 00:30:00;;;;;;;1.40;1.10;;;-0.70;98.00;;;;;;5070766;28;20458;-68
2022/02/13 00:32:28;;;;;;;1.87;1.20;;;-0.60;98.00;;;;;;5073764;28;20482;-69
2022/02/13 00:34:55;;;;;;;2.90;1.80;;;-0.70;98.00;;;;;;5074747;28;20534;-68
2022/02/13 00:37:23;;;;;;;2.85;2.05;;;-0.80;98.00;;;;;;5056524;28;20461;-67
2022/02/13 00:39:50;;;;;;;2.77;1.83;;;-0.70;98.00;;;;;;5074537;28;20250;-68
2022/02/13 00:42:18;;;;;;;2.27;1.97;;;-0.70;98.00;;;;;;5056898;28;20486;-69
2022/02/13 00:44:46;;;;;;;2.20;1.70;;;-0.90;98.00;;;;;;5074387;28;20547;-68
2022/02/13 00:47:13;;;;;;;1.67;1.30;;;-0.90;98.00;;;;;;5074222;28;20554;-69
2022/02/13 00:49:40;;;;;;;1.57;1.43;;;-1.00;98.00;;;;;;5074259;28;20941;-68
2022/02/13 00:52:07;;;;;;;1.93;1.40;;;-0.90;98.00;;;;;;5056248;28;20485;-68
2022/02/13 00:54:34;;;;;;;1.10;1.00;;;-0.80;98.00;;;;;;5056438;28;20841;-68
2022/02/13 00:57:02;;;;;;;1.30;1.30;;;-0.80;98.00;;;;;;5072289;28;20491;-68
2022/02/13 00:59:31;;;;;;;1.20;1.10;;;-0.90;98.00;;;;;;5074126;28;20583;-69
2022/02/13 01:01:58;;;;;;;1.20;1.20;;;-1.00;98.00;;;;;;5074492;28;20508;-68
2022/02/13 01:04:25;;;;;;;1.37;1.33;;;-0.90;98.00;;;;;;5074172;28;20497;-68
2022/02/13 01:06:52;;;;;;;1.40;1.40;;;-0.90;98.00;;;;;;5073973;28;20447;-68
2022/02/13 01:09:19;;;;;;;2.13;1.97;;;-0.90;98.00;;;;;;5073852;28;20454;-68
2022/02/13 01:11:47;;;;;;;6.13;2.70;;;-1.10;98.00;;;;;;5073917;28;20900;-68
2022/02/13 01:14:14;;;;;;;1.20;1.10;;;-1.20;98.00;;;;;;5073674;28;20555;-68
2022/02/13 01:16:43;;;;;;;1.70;1.70;;;-1.30;98.00;;;;;;5073937;28;20461;-68
2022/02/13 01:19:10;;;;;;;2.23;1.83;;;-1.20;98.00;;;;;;5073362;28;20874;-68
2022/02/13 01:21:37;;;;;;;1.48;1.48;;;-1.10;98.00;;;;;;5073778;28;20482;-69
2022/02/13 01:24:04;;;;;;;3.10;1.95;;;-1.20;98.00;;;;;;5073555;28;20268;-68
2022/02/13 01:26:31;;;;;;;4.60;3.10;;;-1.20;98.00;;;;;;5073641;28;20276;-68
2022/02/13 01:29:00;;;;;;;1.95;1.63;;;-1.20;98.00;;;;;;5073687;28;20504;-68
2022/02/13 01:31:27;;;;;;;1.50;1.37;;;-1.20;98.00;;;;;;5073352;28;20312;-68
2022/02/13 01:33:56;;;;;;;1.25;1.17;;;-1.30;98.00;;;;;;5055535;28;20832;-69
2022/02/13 01:36:23;;;;;;;6.00;1.90;;;-1.20;98.00;;;;;;5073542;28;20209;-69
2022/02/13 01:38:50;;;;;;;1.10;1.00;;;-1.10;98.00;;;;;;5073335;28;20732;-68
2022/02/13 01:41:18;;;;;;;6.93;2.87;;;-1.10;98.00;;;;;;5073372;28;20296;-69
2022/02/13 01:43:45;;;;;;;1.20;1.20;;;-0.90;98.00;;;;;;5072025;28;20829;-68
2022/02/13 01:46:13;;;;;;;1.50;1.40;;;-0.90;98.00;;;;;;5073553;28;20458;-68
2022/02/13 01:48:40;;;;;;;1.38;1.30;;;-0.80;98.00;;;;;;5073352;28;20505;-68
2022/02/13 01:51:08;;;;;;;1.87;1.60;;;-0.80;98.00;;;;;;5073236;28;20315;-68
2022/02/13 01:53:39;;;;;;;1.13;1.10;;;-0.80;98.00;;;;;;5073295;28;20536;-68
2022/02/13 01:56:06;;;;;;;4.13;2.53;;;-0.90;98.00;;;;;;5055661;28;20513;-69
2022/02/13 01:58:34;;;;;;;1.10;0.90;;;-0.90;98.00;;;;;;5072814;28;20539;-68
2022/02/13 02:01:01;;;;;;;2.43;1.67;;;-1.00;98.00;;;;;;5073161;28;20493;-69
2022/02/13 02:03:28;;;;;;;1.63;1.53;;;-1.00;98.00;;;;;;5073033;28;20489;-68
2022/02/13 02:05:55;;;;;;;1.10;1.03;;;-1.10;98.00;;;;;;5072740;28;20494;-68
2022/02/13 02:08:23;;;;;;;1.45;1.38;;;-1.10;98.00;;;;;;5072846;28;20872;-68
2022/02/13 02:10:50;;;;;;;1.65;1.35;;;-1.20;98.00;;;;;;5072817;28;20743;-67
2022/02/13 02:13:18;;;;;;;1.10;1.10;;;-1.10;98.00;;;;;;5054621;28;20212;-68
2022/02/13 02:15:44;;;;;;;1.20;1.00;;;-1.00;98.00;;;;;;5072836;28;20240;-68
2022/02/13 02:18:11;;;;;;;1.20;1.20;;;-1.10;98.00;;;;;;5072356;28;20239;-68
2022/02/13 02:20:40;;;;;;;1.60;1.37;;;-1.00;98.00;;;;;;5072576;28;20208;-69
2022/02/13 02:23:08;;;;;;;1.53;1.43;;;-0.90;98.00;;;;;;5054858;28;20967;-67
2022/02/13 02:25:35;;;;;;;5.37;3.10;;;-0.90;98.00;;;;;;5072458;28;20547;-68
2022/02/13 02:28:02;;;;;;;3.75;1.95;;;-1.00;98.00;;;;;;5072433;28;20498;-69
2022/02/13 02:30:29;;;;;;;1.10;1.00;;;-1.00;98.00;;;;;;5072528;28;20242;-68
2022/02/13 02:32:56;;;;;;;1.67;1.67;;;-1.00;98.00;;;;;;5072210;28;20316;-68
2022/02/13 02:35:23;;;;;;;1.20;1.17;;;-1.10;98.00;;;;;;5072168;28;20541;-68
2022/02/13 02:37:51;;;;;;;1.20;1.10;;;-1.20;98.00;;;;;;5072043;28;20212;-68
2022/02/13 02:40:19;;;;;;;1.20;1.10;;;-1.20;98.00;;;;;;5072064;28;20239;-68
2022/02/13 02:42:47;;;;;;;2.63;1.30;;;-1.30;98.00;;;;;;5072268;28;21012;-68
2022/02/13 02:45:14;;;;;;;1.10;1.00;;;-1.40;98.00;;;;;;5071810;28;20454;-68
2022/02/13 02:47:46;;;;;;;1.10;1.00;;;-1.40;98.00;;;;;;5071808;28;20254;-68
2022/02/13 02:50:14;;;;;;;3.20;2.27;;;-1.40;98.00;;;;;;5071587;28;20199;-68
2022/02/13 02:52:42;;;;;;;1.83;1.48;;;-1.60;98.00;;;;;;5071754;28;20909;-68
2022/02/13 02:55:09;;;;;;;1.98;1.58;;;-1.70;98.00;;;;;;5071667;28;20238;-68
2022/02/13 02:57:38;;;;;;;1.77;1.70;;;-1.70;98.00;;;;;;5071829;28;20234;-68
2022/02/13 03:00:07;;;;;;;1.20;1.00;;;-1.70;98.00;;;;;;5071886;28;20236;-68
2022/02/13 03:02:34;;;;;;;1.40;1.35;;;-1.80;98.00;;;;;;5071812;28;20198;-68
2022/02/13 03:05:01;;;;;;;2.10;1.95;;;-1.80;98.00;;;;;;5071974;28;20242;-68
2022/02/13 03:07:28;;;;;;;3.50;2.88;;;-1.70;98.00;;;;;;5054050;28;20633;-68
2022/02/13 03:09:55;;;;;;;1.20;1.20;;;-1.60;98.00;;;;;;5071810;28;20200;-68
2022/02/13 03:12:22;;;;;;;1.50;1.40;;;-1.60;98.00;;;;;;5071824;28;20223;-69
2022/02/13 03:14:52;;;;;;;1.10;1.00;;;-1.80;98.00;;;;;;5071720;28;20230;-67
2022/02/13 03:17:19;;;;;;;1.60;1.50;;;-1.70;98.00;;;;;;5071553;28;20256;-68
2022/02/13 03:19:46;;;;;;;2.95;2.40;;;-1.60;98.00;;;;;;5053800;28;20211;-68
2022/02/13 03:22:13;;;;;;;1.20;1.20;;;-1.60;98.00;;;;;;5071570;28;20206;-68
2022/02/13 03:24:40;;;;;;;1.60;1.50;;;-1.70;98.00;;;;;;5071451;28;20285;-68
2022/02/13 03:27:07;;;;;;;1.73;1.45;;;-1.60;98.00;;;;;;5071414;28;20627;-68
2022/02/13 03:29:34;;;;;;;1.20;1.10;;;-1.60;98.00;;;;;;5071249;28;20204;-68
2022/02/13 03:32:02;;;;;;;1.42;1.33;;;-1.50;98.00;;;;;;5053607;28;20250;-68
2022/02/13 03:34:30;;;;;;;1.50;1.40;;;-1.50;98.00;;;;;;5070916;28;20199;-68
2022/02/13 03:36:57;;;;;;;1.20;1.20;;;-1.50;98.00;;;;;;5053786;28;20486;-69
2022/02/13 03:39:28;;;;;;;1.20;1.17;;;-1.70;98.00;;;;;;5071153;28;20253;-68
2022/02/13 03:41:58;;;;;;;1.50;1.30;;;-1.60;98.00;;;;;;5071148;28;20203;-69
2022/02/13 03:44:25;;;;;;;1.60;1.20;;;-1.60;98.00;;;;;;5071072;28;20217;-67
2022/02/13 03:46:54;;;;;;;1.67;1.65;;;-1.70;98.00;;;;;;5071170;28;20203;-68
2022/02/13 03:49:23;;;;;;;1.20;1.20;;;-1.70;98.00;;;;;;5071071;28;20208;-68
2022/02/13 03:51:50;;;;;;;2.38;1.45;;;-1.60;98.00;;;;;;5071103;28;20788;-68
2022/02/13 03:54:17;;;;;;;1.50;1.30;;;-1.60;98.00;;;;;;5070886;28;20714;-68
2022/02/13 03:56:44;;;;;;;1.58;1.52;;;-1.60;98.00;;;;;;5071043;28;20738;-68
2022/02/13 03:59:11;;;;;;;2.65;1.98;;;-1.70;98.00;;;;;;5070889;28;20238;-68
2022/02/13 04:01:38;;;;;;;1.45;1.30;;;-1.70;98.00;;;;;;5070864;28;20256;-68
2022/02/13 04:04:06;;;;;;;1.20;1.00;;;-1.70;98.00;;;;;;5070759;28;20237;-68
2022/02/13 04:06:34;;;;;;;8.50;2.30;;;-1.60;98.00;;;;;;5070044;28;20232;-68
2022/02/13 04:09:02;;;;;;;3.20;2.60;;;-1.50;98.00;;;;;;5070747;28;20203;-68
2022/02/13 04:11:28;;;;;;;1.20;1.13;;;-1.50;98.00;;;;;;5070756;28;20486;-68
2022/02/13 04:13:55;;;;;;;1.52;1.45;;;-1.70;98.00;;;;;;5070747;28;20548;-68
2022/02/13 04:16:22;;;;;;;1.20;1.10;;;-1.70;98.00;;;;;;5070958;28;20235;-68
2022/02/13 04:18:50;;;;;;;2.17;2.00;;;-1.70;98.00;;;;;;5070529;28;20657;-68
2022/02/13 04:21:17;;;;;;;1.15;1.10;;;-1.40;98.00;;;;;;5070644;28;20479;-68
2022/02/13 04:23:46;;;;;;;1.63;1.52;;;-1.20;98.00;;;;;;5053009;28;20682;-68
2022/02/13 04:26:13;;;;;;;1.50;1.40;;;-1.20;98.00;;;;;;5070810;28;20244;-68
2022/02/13 04:28:40;;;;;;;4.43;1.67;;;-1.20;98.00;;;;;;5052862;28;20261;-68
2022/02/13 04:31:07;;;;;;;1.17;1.10;;;-1.20;98.00;;;;;;5053270;28;20935;-68
2022/02/13 04:33:34;;;;;;;1.17;1.10;;;-1.50;98.00;;;;;;5070491;28;20764;-68
2022/02/13 04:36:01;;;;;;;1.85;1.52;;;-1.60;98.00;;;;;;5070944;28;20542;-68
2022/02/13 04:38:27;;;;;;;1.10;0.95;;;-1.60;98.00;;;;;;5070658;28;20724;-68
2022/02/13 04:40:56;;;;;;;1.20;1.00;;;-1.70;98.00;;;;;;5070752;28;20664;-69
2022/02/13 04:43:23;;;;;;;1.20;1.15;;;-1.80;98.00;;;;;;5070444;28;20622;-68
2022/02/13 04:45:50;;;;;;;3.15;2.40;;;-1.90;98.00;;;;;;5070500;28;20690;-67
2022/02/13 04:48:17;;;;;;;1.33;1.23;;;-1.80;98.00;;;;;;5070390;28;20295;-67
2022/02/13 04:50:44;;;;;;;2.08;1.95;;;-1.60;98.00;;;;;;5070398;28;20622;-68
2022/02/13 04:53:12;;;;;;;1.10;1.00;;;-1.50;98.00;;;;;;5069773;28;20784;-68
2022/02/13 04:55:39;;;;;;;5.13;2.55;;;-1.50;98.00;;;;;;5070384;28;20693;-67
2022/02/13 04:58:07;;;;;;;1.47;1.20;;;-1.60;98.00;;;;;;5052973;28;20243;-68
2022/02/13 05:00:34;;;;;;;1.40;1.30;;;-1.60;98.00;;;;;;5070310;28;20760;-68
2022/02/13 05:03:02;;;;;;;1.20;1.10;;;-1.80;98.00;;;;;;5070310;28;20204;-68
2022/02/13 05:05:29;;;;;;;1.30;1.20;;;-1.90;98.00;;;;;;5052613;28;20208;-68
2022/02/13 05:07:56;;;;;;;1.30;1.23;;;-1.90;98.00;;;;;;5070509;28;20237;-68
2022/02/13 05:10:23;;;;;;;1.30;1.30;;;-1.80;98.00;;;;;;5070067;28;20453;-68
2022/02/13 05:12:50;;;;;;;1.20;1.00;;;-1.80;98.00;;;;;;5070260;28;20648;-68
2022/02/13 05:15:19;;;;;;;1.45;1.35;;;-1.70;98.00;;;;;;5070990;28;20245;-68
2022/02/13 05:17:47;;;;;;;1.10;1.05;;;-1.70;98.00;;;;;;5072594;28;20214;-68
2022/02/13 05:20:14;;;;;;;1.85;1.63;;;-1.80;98.00;;;;;;5056544;28;20206;-68
2022/02/13 05:22:42;;;;;;;1.10;1.00;;;-1.70;98.00;;;;;;5074098;28;20201;-68
2022/02/13 05:25:10;;;;;;;1.30;1.30;;;-1.80;98.00;;;;;;5073758;28;20273;-68
2022/02/13 05:27:37;;;;;;;1.13;1.10;;;-1.90;98.00;;;;;;5073581;28;20497;-68
2022/02/13 05:30:05;;;;;;;1.60;1.50;;;-1.90;98.00;;;;;;5073588;28;20238;-68
2022/02/13 05:32:33;;;;;;;3.25;2.05;;;-2.00;98.00;;;;;;5073569;28;20884;-68
2022/02/13 05:35:00;;;;;;;2.13;1.60;;;-1.90;98.00;;;;;;5073780;28;20665;-68
2022/02/13 05:37:29;;;;;;;1.40;1.40;;;-2.00;98.00;;;;;;5073365;28;20462;-68
2022/02/13 05:39:56;;;;;;;2.05;1.95;;;-2.10;98.00;;;;;;5073346;28;20212;-68
2022/02/13 05:42:24;;;;;;;1.30;1.20;;;-2.00;98.00;;;;;;5073575;28;20203;-68
2022/02/13 05:44:51;;;;;;;1.58;1.48;;;-2.10;98.00;;;;;;5073382;28;20300;-69
2022/02/13 05:47:18;;;;;;;1.33;1.33;;;-2.00;98.00;;;;;;5072840;28;20206;-68
2022/02/13 05:49:50;;;;;;;1.45;1.35;;;-1.90;98.00;;;;;;5073198;28;20245;-68
2022/02/13 05:52:17;;;;;;;3.15;2.75;;;-2.00;98.00;;;;;;5071788;28;20222;-68
2022/02/13 05:54:44;;;;;;;1.83;1.75;;;-2.00;98.00;;;;;;5073451;28;20235;-67
2022/02/13 05:57:11;;;;;;;1.10;1.00;;;-2.00;98.00;;;;;;5073213;28;20249;-68
2022/02/13 05:59:38;;;;;;;2.05;1.83;;;-2.00;98.00;;;;;;5073165;28;20242;-68
2022/02/13 06:02:05;;;;;;;1.10;1.00;;;-2.10;98.00;;;;;;5073330;28;20290;-68
2022/02/13 06:04:32;;;;;;;1.30;1.30;;;-2.20;98.00;;;;;;5073204;28;20305;-68
2022/02/13 06:07:01;;;;;;;1.20;1.10;;;-2.20;98.00;;;;;;5073209;28;20238;-68
2022/02/13 06:09:28;;;;;;;4.60;2.88;;;-2.20;98.00;;;;;;5072790;28;20246;-68
2022/02/13 06:11:55;;;;;;;1.48;1.40;;;-2.30;98.00;;;;;;5072975;28;20238;-68
2022/02/13 06:14:22;;;;;;;1.20;1.17;;;-2.30;98.00;;;;;;5054819;28;20309;-68
2022/02/13 06:16:49;;;;;;;1.40;1.35;;;-2.10;98.00;;;;;;5072807;28;20236;-68
2022/02/13 06:19:16;;;;;;;1.30;1.20;;;-2.20;98.00;;;;;;5055010;28;20284;-68
2022/02/13 06:21:43;;;;;;;2.22;1.65;;;-2.10;98.00;;;;;;5072612;28;20301;-67
2022/02/13 06:24:12;;;;;;;1.55;1.50;;;-2.10;98.00;;;;;;5072680;28;20213;-68
2022/02/13 06:26:39;;;;;;;1.40;1.30;;;-2.10;98.00;;;;;;5072515;28;20260;-69
2022/02/13 06:29:08;;;;;;;1.10;1.00;;;-2.10;98.00;;;;;;5071828;28;20697;-68
2022/02/13 06:31:35;;;;;;;2.03;1.70;;;-2.10;98.00;;;;;;5072377;28;20202;-69
2022/02/13 06:34:09;;;;;;;1.85;1.25;;;-2.20;98.00;;;;;;5072345;28;20318;-68
2022/02/13 06:36:37;;;;;;;1.17;1.10;;;-2.20;98.00;;;;;;5053411;28;20263;-67
2022/02/13 06:39:05;;;;;;;1.17;1.10;;;-2.30;98.00;;;;;;5072528;28;20492;-68
2022/02/13 06:41:34;;;;;;;1.70;1.60;;;-2.20;98.00;;;;;;5072437;28;20202;-68
2022/02/13 06:44:01;;;;;;;1.45;1.35;;;-2.20;98.00;;;;;;5054480;28;20550;-68
2022/02/13 06:46:28;;;;;;;1.10;1.00;;;-2.10;98.00;;;;;;5072105;28;20242;-68
2022/02/13 06:48:56;;;;;;;1.50;1.43;;;-2.10;98.00;;;;;;5071954;28;20252;-68
2022/02/13 06:51:23;;;;;;;1.20;1.20;;;-2.00;98.00;;;;;;5071782;28;20985;-68
2022/02/13 06:53:50;;;;;;;1.50;1.20;;;-2.00;98.00;;;;;;5071831;28;20252;-68
2022/02/13 06:56:17;;;;;;;1.45;1.45;;;-2.10;98.00;;;;;;5072063;28;20210;-68
2022/02/13 06:58:45;;;;;;;1.20;1.15;;;-2.20;98.00;;;;;;5071674;28;20571;-68
2022/02/13 07:01:14;;;;;;;1.20;1.17;;;-2.20;98.00;;;;;;5071753;28;20261;-68
2022/02/13 07:03:41;;;;;;;1.25;1.20;;;-2.10;98.00;;;;;;5054023;28;20205;-68
2022/02/13 07:06:08;;;;;;;5.22;2.03;;;-2.10;98.00;;;;;;5071821;28;20234;-68
2022/02/13 07:08:35;;;;;;;1.20;1.20;;;-2.20;98.00;;;;;;5053782;28;20290;-68
2022/02/13 07:11:03;;;;;;;5.03;1.80;;;-2.20;98.00;;;;;;5071602;28;20260;-68
2022/02/13 07:13:30;;;;;;;1.40;1.38;;;-2.10;98.00;;;;;;5071643;28;20232;-68
2022/02/13 07:15:58;;;;;;;1.77;1.20;;;-2.20;98.00;;;;;;5071369;28;20205;-68
2022/02/13 07:18:25;;;;;;;1.10;1.00;;;-1.90;98.00;;;;;;5071275;28;20291;-68
2022/02/13 07:20:53;;;;;;;1.70;1.60;;;-1.80;98.00;;;;;;5071215;28;20241;-68
2022/02/13 07:23:20;;;;;;;1.40;1.20;;;-1.70;98.00;;;;;;5071591;28;20203;-68
2022/02/13 07:25:48;;;;;;;1.10;1.02;;;-1.80;98.00;;;;;;5071767;28;20302;-69
2022/02/13 07:31:01;;;;;;;1.20;1.17;;;-1.80;98.00;;;;;;5071581;28;20325;-68
2022/02/13 07:33:28;;;;;;;1.88;1.63;;;-1.90;98.00;;;;;;5071246;28;20719;-68
2022/02/13 07:35:55;;;;;;;1.10;1.10;;;-1.90;98.00;;;;;;5053449;28;20423;-68
2022/02/13 07:38:22;;;;;;;1.65;1.55;;;-1.80;98.00;;;;;;5071305;28;20493;-68
2022/02/13 07:40:49;;;;;;;1.52;1.52;;;-1.70;98.00;;;;;;5053272;28;20269;-68
2022/02/13 07:43:18;;;;;;;1.98;1.35;;;-1.70;98.00;;;;;;5071009;28;20261;-69
2022/02/13 07:45:45;;;;;;;1.50;1.40;;;-1.70;98.00;;;;;;5053613;28;20611;-69
2022/02/13 07:48:20;;;;;;;1.35;1.27;;;-1.70;98.00;;;;;;5071062;28;20231;-68
2022/02/13 07:50:47;;;;;;;1.48;1.45;;;-1.50;98.00;;;;;;5070909;28;20289;-68
2022/02/13 07:53:14;;;;;;;2.35;1.77;;;-1.50;98.00;;;;;;5071113;28;20457;-68
2022/02/13 07:55:41;;;;;;;1.70;1.63;;;-1.40;98.00;;;;;;5071045;28;20245;-68
2022/02/13 07:58:08;;;;;;;2.65;2.10;;;-1.30;98.00;;;;;;5070712;28;20493;-68
2022/02/13 08:00:35;;;;;;;1.95;1.65;;;-1.20;98.00;;;;;;5070843;28;20289;-68
2022/02/13 08:03:02;;;;;;;1.45;1.33;;;-1.20;98.00;;;;;;5070947;28;20260;-68
2022/02/13 08:05:31;;;;;;;2.25;2.05;;;-1.10;98.00;;;;;;5070891;28;20196;-68
2022/02/13 08:07:57;;;;;;;1.50;1.40;;;-1.00;98.00;;;;;;5052998;28;20232;-67
2022/02/13 08:10:24;;;;;;;2.20;1.63;;;-0.90;98.00;;;;;;5070944;28;20486;-67
2022/02/13 08:12:51;;;;;;;3.53;2.27;;;-0.90;98.00;;;;;;5070669;28;20500;-67
2022/02/13 08:15:20;;;;;;;1.10;1.10;;;-1.00;98.00;;;;;;5070709;28;20502;-68
2022/02/13 08:17:47;;;;;;;4.60;1.80;;;-1.00;98.00;;;;;;5053226;28;20311;-69
2022/02/13 08:20:14;;;;;;;2.55;2.42;;;-0.90;98.00;;;;;;5070544;28;20241;-67
2022/02/13 08:22:43;;;;;;;1.30;1.20;;;-0.70;98.00;;;;;;5070765;28;20254;-67
2022/02/13 08:25:10;;;;;;;4.28;2.63;;;-0.60;98.00;;;;;;5070582;28;20512;-69
2022/02/13 08:27:38;;;;;;;1.60;1.57;;;-0.40;98.00;;;;;;5052923;28;20203;-68
2022/02/13 08:30:05;;;;;;;4.67;3.23;;;-0.40;98.00;;;;;;5052953;28;20494;-68
2022/02/13 08:32:32;;;;;;;1.10;1.00;;;-0.40;98.00;;;;;;5070569;28;20493;-67
2022/02/13 08:35:00;;;;;;;1.20;1.17;;;-0.40;98.00;;;;;;5070530;28;20582;-68
2022/02/13 08:37:27;;;;;;;2.05;1.73;;;-0.40;98.00;;;;;;5070710;28;20518;-68
2022/02/13 08:39:55;;;;;;;1.40;1.30;;;-0.30;98.00;;;;;;5070785;28;20645;-68
2022/02/13 08:42:22;;;;;;;1.50;1.50;;;0.00;98.00;;;;;;5070791;28;20497;-67
2022/02/13 08:44:49;;;;;;;3.20;2.67;;;0.00;98.00;;;;;;5070544;28;20501;-68
2022/02/13 08:47:16;;;;;;;1.10;1.00;;;0.30;98.00;;;;;;5070654;28;20882;-68
2022/02/13 08:49:44;;;;;;;4.47;1.53;;;0.30;98.00;;;;;;5070818;28;20867;-69
2022/02/13 08:52:11;;;;;;;2.33;2.13;;;0.40;98.00;;;;;;5071645;28;20967;-68
2022/02/13 08:54:38;;;;;;;1.40;1.30;;;0.60;98.00;;;;;;5074385;28;20579;-68
2022/02/13 08:57:07;;;;;;;1.40;1.30;;;0.50;98.00;;;;;;5064314;28;20464;-68
2022/02/13 08:59:34;;;;;;;1.60;1.40;;;0.70;98.00;;;;;;5053075;28;21260;-67
2022/02/13 09:02:01;;;;;;;1.50;1.37;;;0.70;98.00;;;;;;5055611;28;20498;-67
2022/02/13 09:04:28;;;;;;;1.53;1.43;;;0.70;98.00;;;;;;5059064;28;20492;-67
2022/02/13 09:06:55;;;;;;;2.50;1.40;;;0.80;98.00;;;;;;5060217;28;20561;-67
2022/02/13 09:09:23;;;;;;;2.27;1.60;;;0.90;98.00;;;;;;5059977;28;20528;-66
2022/02/13 09:11:50;;;;;;;1.30;1.30;;;0.90;98.00;;;;;;5051420;28;20506;-68
2022/02/13 09:14:18;;;;;;;2.90;1.93;;;0.90;98.00;;;;;;5062959;28;20568;-68
2022/02/13 09:16:46;;;;;;;1.40;1.30;;;1.00;98.00;;;;;;5068641;28;20808;-66
2022/02/13 09:19:13;;;;;;;1.37;1.33;;;1.20;98.00;;;;;;5052770;28;20496;-67
2022/02/13 09:21:41;;;;;;;1.20;1.10;;;1.30;98.00;;;;;;5052406;28;20939;-67
2022/02/13 09:24:08;;;;;;;2.47;2.13;;;1.50;98.00;;;;;;5061939;28;21013;-65
2022/02/13 09:26:35;;;;;;;1.93;1.87;;;1.60;98.00;;;;;;5051867;28;20487;-68
2022/02/13 09:29:02;;;;;;;1.87;1.80;;;1.70;98.00;;;;;;5053353;28;20468;-67
2022/02/13 09:31:31;;;;;;;3.63;1.97;;;2.00;98.00;;;;;;5067636;28;20930;-67
2022/02/13 09:33:57;;;;;;;1.20;1.20;;;2.10;98.00;;;;;;5052759;28;20576;-67
2022/02/13 09:36:24;;;;;;;1.97;1.37;;;2.20;98.00;;;;;;5060107;28;20878;-68
2022/02/13 09:38:53;;;;;;;2.00;1.90;;;2.30;98.00;;;;;;5061379;28;20946;-67
2022/02/13 09:41:20;;;;;;;3.83;2.53;;;2.30;98.00;;;;;;5069146;28;20460;-68
2022/02/13 09:43:48;;;;;;;1.20;1.20;;;2.50;98.00;;;;;;5060623;28;20492;-67
2022/02/13 09:46:17;;;;;;;2.07;1.30;;;2.70;98.00;;;;;;5060559;28;21033;-66
2022/02/13 09:48:45;;;;;;;2.70;2.13;;;2.90;98.00;;;;;;5062016;28;20532;-66
2022/02/13 09:51:12;;;;;;;2.13;1.97;;;3.10;98.00;;;;;;5056498;28;20457;-66
2022/02/13 09:53:40;;;;;;;1.50;1.43;;;3.20;98.00;;;;;;5068927;28;20915;-66
2022/02/13 09:56:08;;;;;;;3.40;2.50;;;3.40;98.00;;;;;;5061521;28;20518;-66
2022/02/13 09:58:36;;;;;;;2.80;1.40;;;3.60;98.00;;;;;;5043456;28;20465;-67
2022/02/13 10:01:06;;;;;;;1.63;1.60;;;3.80;98.00;;;;;;5060718;28;20456;-67
2022/02/13 10:03:34;;;;;;;1.70;1.30;;;3.90;98.00;;;;;;5050770;28;20545;-67
2022/02/13 10:06:20;;;;;;;1.50;1.17;;;4.10;98.00;;;;;;5060952;28;20490;-67
2022/02/13 10:08:49;;;;;;;1.80;1.77;;;4.20;98.00;;;;;;5051821;28;20468;-66
2022/02/13 10:11:23;;;;;;;2.80;2.23;;;4.30;98.00;;;;;;5063453;28;20468;-66
2022/02/13 10:13:52;;;;;;;1.53;1.43;;;4.50;98.00;;;;;;5040512;28;20496;-66
2022/02/13 10:16:24;;;;;;;1.80;1.77;;;4.70;98.00;;;;;;5060200;28;20462;-66
2022/02/13 10:18:57;;;;;;;1.53;1.47;;;4.70;98.00;;;;;;5043479;28;20511;-65
2022/02/13 10:21:41;;;;;;;1.87;1.73;;;4.90;98.00;;;;;;5060120;28;20469;-65
2022/02/13 10:24:18;;;;;;;1.20;1.07;;;5.00;98.00;;;;;;5044522;28;20492;-64
2022/02/13 10:26:46;;;;;;;2.87;1.97;;;5.20;98.00;;;;;;5053090;28;20515;-67
2022/02/13 10:29:13;;;;;;;1.57;1.20;;;5.50;98.00;;;;;;5060601;28;20793;-67
2022/02/13 10:31:41;;;;;;;1.30;1.20;;;5.70;98.00;;;;;;5068651;28;20532;-66
2022/02/13 10:34:08;;;;;;;1.80;1.70;;;5.90;98.00;;;;;;5061196;28;20964;-66
2022/02/13 10:36:41;;;;;;;1.20;1.17;;;6.10;98.00;;;;;;5052868;28;20947;-65
2022/02/13 10:39:25;;;;;;;1.50;1.40;;;6.20;98.00;;;;;;5068851;28;20542;-66
2022/02/13 10:41:53;;;;;;;1.20;1.10;;;6.30;98.00;;;;;;5052109;28;20459;-66
2022/02/13 10:44:26;;;;;;;1.50;1.30;;;6.50;98.00;;;;;;5052074;28;20522;-66
2022/02/13 10:46:54;;;;;;;2.33;1.53;;;6.60;98.00;;;;;;5052362;28;20496;-66
2022/02/13 10:49:21;;;;;;;1.30;1.30;;;6.80;98.00;;;;;;5051942;28;20878;-66
2022/02/13 10:51:51;;;;;;;1.40;1.20;;;7.00;98.00;;;;;;5052135;28;20543;-66
2022/02/13 10:54:18;;;;;;;1.70;1.70;;;7.20;98.00;;;;;;5051967;28;20621;-66
2022/02/13 10:56:45;;;;;;;1.20;1.10;;;7.40;98.00;;;;;;5052034;28;20560;-66
2022/02/13 10:59:14;;;;;;;2.80;1.43;;;7.60;98.00;;;;;;5051812;28;20493;-64
2022/02/13 11:01:42;;;;;;;1.30;1.10;;;7.80;98.00;;;;;;5052104;28;20456;-63
2022/02/13 11:04:10;;;;;;;4.23;1.57;;;8.10;98.00;;;;;;5051709;28;20941;-63
2022/02/13 11:06:39;;;;;;;1.20;1.00;;;8.30;98.00;;;;;;5051774;28;20481;-64
2022/02/13 11:09:17;;;;;;;1.20;1.03;;;8.90;98.00;;;;;;5051776;28;20549;-64
2022/02/13 11:11:51;;;;;;;1.40;1.30;;;10.00;98.00;;;;;;5051823;28;20454;-64
2022/02/13 11:14:26;;;;;;;2.03;1.50;;;10.70;98.00;;;;;;5051370;28;20492;-62
2022/02/13 11:16:54;;;;;;;2.30;1.90;;;11.00;98.00;;;;;;5051513;28;20859;-62
2022/02/13 11:19:22;;;;;;;1.83;1.40;;;11.10;94.70;;;;;;5051378;28;20453;-62
2022/02/13 11:21:49;;;;;;;2.10;1.27;;;11.20;95.70;;;;;;5051563;28;20496;-62
2022/02/13 11:24:29;;;;;;;1.60;1.50;;;11.40;96.50;;;;;;5051614;28;20446;-61
2022/02/13 11:27:00;;;;;;;1.83;1.70;;;11.60;96.60;;;;;;5051628;28;20486;-62
2022/02/13 11:29:50;;;;;;;2.73;2.03;;;11.70;90.00;;;;;;5051421;28;20531;-62
2022/02/13 11:32:35;;;;;;;5.20;1.83;;;11.90;90.00;;;;;;5034148;28;20454;-63
2022/02/13 11:35:02;;;;;;;3.77;1.60;;;12.10;87.90;;;;;;5051713;28;20552;-62
2022/02/13 11:37:46;;;;;;;1.43;1.30;;;12.30;87.30;;;;;;5051631;28;20526;-62
2022/02/13 11:40:51;;;;;;;1.43;1.30;;;12.50;84.90;;;;;;5050036;28;20477;-63
2022/02/13 11:43:18;;;;;;;1.30;1.20;;;12.70;85.30;;;;;;5052120;28;20488;-62
2022/02/13 11:45:47;;;;;;;1.40;1.40;;;12.90;83.80;;;;;;5051715;28;20457;-63
2022/02/13 11:48:40;;;;;;;2.07;1.50;;;13.20;84.60;;;;;;5051859;28;21008;-62
2022/02/13 11:51:09;;;;;;;1.83;1.77;;;13.70;83.90;;;;;;5051694;28;20455;-62
2022/02/13 11:53:39;;;;;;;1.30;1.20;;;13.90;83.10;;;;;;5051812;28;20463;-62
2022/02/13 11:56:24;;;;;;;1.60;1.50;;;14.40;81.00;;;;;;5051360;28;20950;-62
2022/02/13 11:58:55;;;;;;;1.53;1.30;;;14.60;79.00;;;;;;5051731;28;21001;-62
2022/02/13 12:01:45;;;;;;;1.30;1.20;;;14.90;78.80;;;;;;5051657;28;20461;-63
2022/02/13 12:04:12;;;;;;;1.70;1.40;;;15.20;78.80;;;;;;5051494;28;20551;-64
2022/02/13 12:06:39;;;;;;;1.33;1.30;;;15.50;78.30;;;;;;5051639;28;20852;-63
2022/02/13 12:09:09;;;;;;;1.63;1.40;;;15.60;76.10;;;;;;5051330;28;20464;-64
2022/02/13 12:11:40;;;;;;;1.30;1.30;;;15.60;75.10;;;;;;5051094;28;20457;-63
2022/02/13 12:14:15;;;;;;;2.33;1.53;;;15.50;75.00;;;;;;5051510;28;20933;-64
2022/02/13 12:16:50;;;;;;;1.20;1.20;;;15.70;74.40;;;;;;5051897;28;20541;-62
2022/02/13 12:19:27;;;;;;;2.27;1.63;;;15.80;74.60;;;;;;5051620;28;20464;-63
2022/02/13 12:22:05;;;;;;;1.80;1.67;;;15.70;73.80;;;;;;5051586;28;20491;-63
2022/02/13 12:24:32;;;;;;;3.20;1.47;;;15.80;75.20;;;;;;5051177;28;20546;-63
2022/02/13 12:27:05;;;;;;;1.60;1.20;;;16.10;73.80;;;;;;5052231;28;20472;-64
2022/02/13 12:29:32;;;;;;;1.97;1.57;;;16.50;73.30;;;;;;5055495;28;20454;-63
2022/02/13 12:32:06;;;;;;;1.50;1.40;;;16.90;73.60;;;;;;5037988;28;20487;-64
2022/02/13 12:34:55;;;;;;;1.50;1.30;;;17.20;72.40;;;;;;5055356;28;20559;-63
2022/02/13 12:37:32;;;;;;;1.77;1.13;;;17.10;71.10;;;;;;5055335;28;20537;-63
2022/02/13 12:40:03;;;;;;;1.43;1.37;;;17.20;70.80;;;;;;5055305;28;20541;-63
2022/02/13 12:42:33;;;;;;;2.73;1.87;;;16.90;70.40;;;;;;5037408;28;20549;-64
2022/02/13 12:45:01;;;;;;;1.90;1.27;;;16.90;71.70;;;;;;5054980;28;20460;-63
2022/02/13 12:47:30;;;;;;;1.37;1.20;;;17.10;70.40;;;;;;5055054;28;20513;-63
2022/02/13 12:49:59;;;;;;;1.20;1.20;;;17.30;70.10;;;;;;5055225;28;20519;-64
2022/02/13 12:52:26;;;;;;;2.20;1.57;;;17.40;69.80;;;;;;5055302;28;20593;-63
2022/02/13 12:54:53;;;;;;;2.50;1.67;;;17.20;69.00;;;;;;5066260;28;20519;-64
2022/02/13 12:57:22;;;;;;;1.30;1.23;;;17.70;70.80;;;;;;5072804;28;20444;-64